sensor_id;sensor_type;location;lat;lon;timestamp;P1;durP1;ratioP1;P2;durP2;ratioP2
3379;SDS011;1703;51.964;7.642;2023-08-07T00:01:31;3.90;;;2.00;;
3379;SDS011;1703;51.964;7.642;2023-08-07T00:03:58;3.17;;;1.83;;
3379;SDS011;1703;51.964;7.642;2023-08-07T00:06:25;3.03;;;1.70;;
3379;SDS011;1703;51.964;7.642;2023-08-07T00:08:51;3.53;;;1.67;;
3379;SDS011;1703;51.964;7.642;2023-08-07T00:11:18;2.73;;;1.87;;
3379;SDS011;1703;51.964;7.642;2023-08-07T00:13:45;9.60;;;2.13;;
3379;SDS011;1703;51.964;7.642;2023-08-07T00:16:12;5.60;;;2.23;;
3379;SDS011;1703;51.964;7.642;2023-08-07T00:18:40;2.57;;;2.33;;
3379;SDS011;1703;51.964;7.642;2023-08-07T00:21:07;1.73;;;1.60;;
3379;SDS011;1703;51.964;7.642;2023-08-07T00:23:33;3.00;;;2.70;;
3379;SDS011;1703;51.964;7.642;2023-08-07T00:26:00;3.67;;;1.87;;
3379;SDS011;1703;51.964;7.642;2023-08-07T00:28:27;2.83;;;1.73;;
3379;SDS011;1703;51.964;7.642;2023-08-07T00:30:54;2.47;;;2.27;;
3379;SDS011;1703;51.964;7.642;2023-08-07T00:33:21;2.60;;;1.50;;
3379;SDS011;1703;51.964;7.642;2023-08-07T00:35:50;4.57;;;1.97;;
3379;SDS011;1703;51.964;7.642;2023-08-07T00:38:17;4.03;;;1.97;;
3379;SDS011;1703;51.964;7.642;2023-08-07T00:40:43;2.53;;;1.60;;
3379;SDS011;1703;51.964;7.642;2023-08-07T00:43:10;3.00;;;1.50;;
3379;SDS011;1703;51.964;7.642;2023-08-07T00:45:38;3.20;;;2.13;;
3379;SDS011;1703;51.964;7.642;2023-08-07T00:48:08;2.53;;;1.93;;
3379;SDS011;1703;51.964;7.642;2023-08-07T00:50:36;1.83;;;1.40;;
3379;SDS011;1703;51.964;7.642;2023-08-07T00:53:05;4.10;;;2.10;;
3379;SDS011;1703;51.964;7.642;2023-08-07T00:55:33;3.00;;;1.93;;
3379;SDS011;1703;51.964;7.642;2023-08-07T00:58:00;2.27;;;2.17;;
3379;SDS011;1703;51.964;7.642;2023-08-07T01:00:27;2.63;;;2.43;;
3379;SDS011;1703;51.964;7.642;2023-08-07T01:02:55;1.70;;;1.57;;
3379;SDS011;1703;51.964;7.642;2023-08-07T01:05:23;2.33;;;1.73;;
3379;SDS011;1703;51.964;7.642;2023-08-07T01:07:51;3.40;;;2.40;;
3379;SDS011;1703;51.964;7.642;2023-08-07T01:10:24;3.27;;;2.10;;
3379;SDS011;1703;51.964;7.642;2023-08-07T01:12:59;3.40;;;2.00;;
3379;SDS011;1703;51.964;7.642;2023-08-07T01:15:34;2.87;;;2.10;;
3379;SDS011;1703;51.964;7.642;2023-08-07T01:18:03;4.73;;;2.57;;
3379;SDS011;1703;51.964;7.642;2023-08-07T01:20:32;2.70;;;2.20;;
3379;SDS011;1703;51.964;7.642;2023-08-07T01:23:01;1.83;;;1.73;;
3379;SDS011;1703;51.964;7.642;2023-08-07T01:25:27;6.10;;;2.57;;
3379;SDS011;1703;51.964;7.642;2023-08-07T01:27:55;3.73;;;2.40;;
3379;SDS011;1703;51.964;7.642;2023-08-07T01:30:33;2.90;;;2.40;;
3379;SDS011;1703;51.964;7.642;2023-08-07T01:33:06;4.40;;;2.97;;
3379;SDS011;1703;51.964;7.642;2023-08-07T01:39:02;6.20;;;3.60;;
3379;SDS011;1703;51.964;7.642;2023-08-07T01:41:32;8.13;;;3.07;;
3379;SDS011;1703;51.964;7.642;2023-08-07T01:43:59;4.37;;;3.70;;
3379;SDS011;1703;51.964;7.642;2023-08-07T01:46:28;10.30;;;4.77;;
3379;SDS011;1703;51.964;7.642;2023-08-07T01:48:54;11.83;;;4.77;;
3379;SDS011;1703;51.964;7.642;2023-08-07T01:51:21;13.23;;;5.73;;
3379;SDS011;1703;51.964;7.642;2023-08-07T01:53:48;8.77;;;5.17;;
3379;SDS011;1703;51.964;7.642;2023-08-07T01:56:16;7.03;;;5.27;;
3379;SDS011;1703;51.964;7.642;2023-08-07T01:58:43;4.47;;;4.07;;
3379;SDS011;1703;51.964;7.642;2023-08-07T02:01:10;5.93;;;4.87;;
3379;SDS011;1703;51.964;7.642;2023-08-07T02:03:38;8.23;;;4.87;;
3379;SDS011;1703;51.964;7.642;2023-08-07T02:06:04;7.30;;;4.60;;
3379;SDS011;1703;51.964;7.642;2023-08-07T02:08:31;8.33;;;5.23;;
3379;SDS011;1703;51.964;7.642;2023-08-07T02:10:58;4.60;;;3.73;;
3379;SDS011;1703;51.964;7.642;2023-08-07T02:13:28;5.33;;;4.00;;
3379;SDS011;1703;51.964;7.642;2023-08-07T02:15:54;4.43;;;3.20;;
3379;SDS011;1703;51.964;7.642;2023-08-07T02:18:21;6.00;;;4.00;;
3379;SDS011;1703;51.964;7.642;2023-08-07T02:20:50;3.93;;;3.57;;
3379;SDS011;1703;51.964;7.642;2023-08-07T02:23:16;3.10;;;2.80;;
3379;SDS011;1703;51.964;7.642;2023-08-07T02:25:43;7.30;;;3.37;;
3379;SDS011;1703;51.964;7.642;2023-08-07T02:28:10;5.00;;;3.23;;
3379;SDS011;1703;51.964;7.642;2023-08-07T02:30:38;5.47;;;2.90;;
3379;SDS011;1703;51.964;7.642;2023-08-07T02:33:05;4.70;;;3.83;;
3379;SDS011;1703;51.964;7.642;2023-08-07T02:35:32;4.97;;;3.73;;
3379;SDS011;1703;51.964;7.642;2023-08-07T02:37:59;4.10;;;2.97;;
3379;SDS011;1703;51.964;7.642;2023-08-07T02:40:25;8.30;;;3.27;;
3379;SDS011;1703;51.964;7.642;2023-08-07T02:42:52;4.80;;;2.77;;
3379;SDS011;1703;51.964;7.642;2023-08-07T02:45:19;2.97;;;2.73;;
3379;SDS011;1703;51.964;7.642;2023-08-07T02:47:47;3.07;;;2.60;;
3379;SDS011;1703;51.964;7.642;2023-08-07T02:50:14;1.90;;;1.70;;
3379;SDS011;1703;51.964;7.642;2023-08-07T02:52:41;2.53;;;2.33;;
3379;SDS011;1703;51.964;7.642;2023-08-07T02:55:08;3.43;;;1.60;;
3379;SDS011;1703;51.964;7.642;2023-08-07T02:57:35;2.77;;;2.57;;
3379;SDS011;1703;51.964;7.642;2023-08-07T03:00:02;4.70;;;1.97;;
3379;SDS011;1703;51.964;7.642;2023-08-07T03:02:29;2.60;;;1.77;;
3379;SDS011;1703;51.964;7.642;2023-08-07T03:04:57;1.73;;;1.40;;
3379;SDS011;1703;51.964;7.642;2023-08-07T03:07:24;3.37;;;1.63;;
3379;SDS011;1703;51.964;7.642;2023-08-07T03:09:51;7.53;;;1.77;;
3379;SDS011;1703;51.964;7.642;2023-08-07T03:12:18;1.07;;;0.97;;
3379;SDS011;1703;51.964;7.642;2023-08-07T03:14:45;9.13;;;1.90;;
3379;SDS011;1703;51.964;7.642;2023-08-07T03:17:12;2.83;;;2.27;;
3379;SDS011;1703;51.964;7.642;2023-08-07T03:19:39;2.87;;;1.83;;
3379;SDS011;1703;51.964;7.642;2023-08-07T03:22:09;2.90;;;1.80;;
3379;SDS011;1703;51.964;7.642;2023-08-07T03:24:36;1.57;;;1.47;;
3379;SDS011;1703;51.964;7.642;2023-08-07T03:27:03;2.30;;;1.50;;
3379;SDS011;1703;51.964;7.642;2023-08-07T03:29:31;2.07;;;1.87;;
3379;SDS011;1703;51.964;7.642;2023-08-07T03:31:58;3.27;;;1.77;;
3379;SDS011;1703;51.964;7.642;2023-08-07T03:34:25;1.50;;;1.40;;
3379;SDS011;1703;51.964;7.642;2023-08-07T03:36:54;1.63;;;1.40;;
3379;SDS011;1703;51.964;7.642;2023-08-07T03:39:24;1.67;;;1.57;;
3379;SDS011;1703;51.964;7.642;2023-08-07T03:41:51;1.27;;;1.17;;
3379;SDS011;1703;51.964;7.642;2023-08-07T03:51:19;4.23;;;1.20;;
3379;SDS011;1703;51.964;7.642;2023-08-07T03:53:50;1.10;;;1.00;;
3379;SDS011;1703;51.964;7.642;2023-08-07T03:56:18;2.63;;;1.17;;
3379;SDS011;1703;51.964;7.642;2023-08-07T03:58:45;3.20;;;1.30;;
3379;SDS011;1703;51.964;7.642;2023-08-07T04:01:14;3.60;;;1.50;;
3379;SDS011;1703;51.964;7.642;2023-08-07T04:03:41;1.37;;;0.90;;
3379;SDS011;1703;51.964;7.642;2023-08-07T04:06:08;1.97;;;0.87;;
3379;SDS011;1703;51.964;7.642;2023-08-07T04:08:37;1.13;;;1.03;;
3379;SDS011;1703;51.964;7.642;2023-08-07T04:11:04;2.00;;;1.20;;
3379;SDS011;1703;51.964;7.642;2023-08-07T04:13:35;3.23;;;1.47;;
3379;SDS011;1703;51.964;7.642;2023-08-07T04:16:02;5.03;;;1.57;;
3379;SDS011;1703;51.964;7.642;2023-08-07T04:18:29;4.80;;;1.40;;
3379;SDS011;1703;51.964;7.642;2023-08-07T04:20:57;5.13;;;1.70;;
3379;SDS011;1703;51.964;7.642;2023-08-07T04:23:24;2.30;;;1.60;;
3379;SDS011;1703;51.964;7.642;2023-08-07T04:25:52;3.50;;;1.73;;
3379;SDS011;1703;51.964;7.642;2023-08-07T04:28:19;4.87;;;2.13;;
3379;SDS011;1703;51.964;7.642;2023-08-07T04:30:50;4.33;;;2.03;;
3379;SDS011;1703;51.964;7.642;2023-08-07T04:33:17;2.93;;;1.40;;
3379;SDS011;1703;51.964;7.642;2023-08-07T04:35:44;6.40;;;2.00;;
3379;SDS011;1703;51.964;7.642;2023-08-07T04:38:11;1.80;;;1.23;;
3379;SDS011;1703;51.964;7.642;2023-08-07T04:40:42;1.60;;;1.23;;
3379;SDS011;1703;51.964;7.642;2023-08-07T04:43:10;3.70;;;1.57;;
3379;SDS011;1703;51.964;7.642;2023-08-07T04:45:37;1.93;;;1.33;;
3379;SDS011;1703;51.964;7.642;2023-08-07T04:48:06;1.67;;;1.33;;
3379;SDS011;1703;51.964;7.642;2023-08-07T04:50:33;4.00;;;1.97;;
3379;SDS011;1703;51.964;7.642;2023-08-07T04:53:00;2.70;;;1.27;;
3379;SDS011;1703;51.964;7.642;2023-08-07T04:55:26;2.30;;;1.70;;
3379;SDS011;1703;51.964;7.642;2023-08-07T04:57:53;6.10;;;1.20;;
3379;SDS011;1703;51.964;7.642;2023-08-07T05:00:21;1.27;;;1.17;;
3379;SDS011;1703;51.964;7.642;2023-08-07T05:02:48;1.43;;;1.10;;
3379;SDS011;1703;51.964;7.642;2023-08-07T05:05:16;1.20;;;1.10;;
3379;SDS011;1703;51.964;7.642;2023-08-07T05:07:45;1.33;;;0.77;;
3379;SDS011;1703;51.964;7.642;2023-08-07T05:10:12;1.47;;;0.87;;
3379;SDS011;1703;51.964;7.642;2023-08-07T05:12:39;1.53;;;1.07;;
3379;SDS011;1703;51.964;7.642;2023-08-07T05:15:06;1.30;;;0.90;;
3379;SDS011;1703;51.964;7.642;2023-08-07T05:17:33;3.73;;;1.10;;
3379;SDS011;1703;51.964;7.642;2023-08-07T05:20:00;1.00;;;1.00;;
3379;SDS011;1703;51.964;7.642;2023-08-07T05:22:29;2.30;;;0.97;;
3379;SDS011;1703;51.964;7.642;2023-08-07T05:24:55;1.40;;;0.90;;
3379;SDS011;1703;51.964;7.642;2023-08-07T05:27:22;2.30;;;1.40;;
3379;SDS011;1703;51.964;7.642;2023-08-07T05:29:49;3.87;;;1.37;;
3379;SDS011;1703;51.964;7.642;2023-08-07T05:32:16;2.67;;;1.13;;
3379;SDS011;1703;51.964;7.642;2023-08-07T05:34:43;1.37;;;1.20;;
3379;SDS011;1703;51.964;7.642;2023-08-07T05:37:09;2.90;;;1.27;;
3379;SDS011;1703;51.964;7.642;2023-08-07T05:39:38;1.50;;;1.40;;
3379;SDS011;1703;51.964;7.642;2023-08-07T05:42:05;4.30;;;1.57;;
3379;SDS011;1703;51.964;7.642;2023-08-07T05:44:33;5.90;;;2.17;;
3379;SDS011;1703;51.964;7.642;2023-08-07T05:46:59;6.87;;;2.00;;
3379;SDS011;1703;51.964;7.642;2023-08-07T05:49:26;2.50;;;1.50;;
3379;SDS011;1703;51.964;7.642;2023-08-07T05:51:53;8.87;;;1.80;;
3379;SDS011;1703;51.964;7.642;2023-08-07T05:54:20;4.20;;;1.93;;
3379;SDS011;1703;51.964;7.642;2023-08-07T05:56:48;6.53;;;1.53;;
3379;SDS011;1703;51.964;7.642;2023-08-07T05:59:15;2.20;;;1.43;;
3379;SDS011;1703;51.964;7.642;2023-08-07T06:01:42;5.03;;;2.07;;
3379;SDS011;1703;51.964;7.642;2023-08-07T06:04:09;5.30;;;1.67;;
3379;SDS011;1703;51.964;7.642;2023-08-07T06:06:35;9.60;;;1.57;;
3379;SDS011;1703;51.964;7.642;2023-08-07T06:09:04;9.00;;;1.90;;
3379;SDS011;1703;51.964;7.642;2023-08-07T06:11:32;4.03;;;1.57;;
3379;SDS011;1703;51.964;7.642;2023-08-07T06:14:00;4.00;;;1.70;;
3379;SDS011;1703;51.964;7.642;2023-08-07T06:16:27;8.23;;;2.17;;
3379;SDS011;1703;51.964;7.642;2023-08-07T06:18:54;8.87;;;1.70;;
3379;SDS011;1703;51.964;7.642;2023-08-07T06:21:21;4.43;;;2.17;;
3379;SDS011;1703;51.964;7.642;2023-08-07T06:23:48;6.53;;;2.10;;
3379;SDS011;1703;51.964;7.642;2023-08-07T06:26:14;4.47;;;1.90;;
3379;SDS011;1703;51.964;7.642;2023-08-07T06:28:41;7.03;;;1.73;;
3379;SDS011;1703;51.964;7.642;2023-08-07T06:31:10;4.97;;;2.13;;
3379;SDS011;1703;51.964;7.642;2023-08-07T06:33:38;11.30;;;2.43;;
3379;SDS011;1703;51.964;7.642;2023-08-07T06:36:06;7.27;;;2.30;;
3379;SDS011;1703;51.964;7.642;2023-08-07T06:38:33;6.83;;;2.67;;
3379;SDS011;1703;51.964;7.642;2023-08-07T06:41:02;6.20;;;2.67;;
3379;SDS011;1703;51.964;7.642;2023-08-07T06:43:29;3.60;;;2.57;;
3379;SDS011;1703;51.964;7.642;2023-08-07T06:45:56;5.50;;;2.60;;
3379;SDS011;1703;51.964;7.642;2023-08-07T06:48:25;11.33;;;2.90;;
3379;SDS011;1703;51.964;7.642;2023-08-07T06:50:51;6.33;;;2.27;;
3379;SDS011;1703;51.964;7.642;2023-08-07T06:53:18;7.40;;;2.80;;
3379;SDS011;1703;51.964;7.642;2023-08-07T06:55:45;6.70;;;3.37;;
3379;SDS011;1703;51.964;7.642;2023-08-07T06:58:12;5.13;;;2.97;;
3379;SDS011;1703;51.964;7.642;2023-08-07T07:00:39;6.10;;;2.60;;
3379;SDS011;1703;51.964;7.642;2023-08-07T07:03:06;15.73;;;4.03;;
3379;SDS011;1703;51.964;7.642;2023-08-07T07:05:36;6.80;;;3.17;;
3379;SDS011;1703;51.964;7.642;2023-08-07T07:08:03;11.17;;;2.67;;
3379;SDS011;1703;51.964;7.642;2023-08-07T07:10:30;3.57;;;2.30;;
3379;SDS011;1703;51.964;7.642;2023-08-07T07:12:57;3.90;;;3.40;;
3379;SDS011;1703;51.964;7.642;2023-08-07T07:15:24;5.97;;;2.60;;
3379;SDS011;1703;51.964;7.642;2023-08-07T07:17:50;7.40;;;3.00;;
3379;SDS011;1703;51.964;7.642;2023-08-07T07:20:18;10.50;;;3.90;;
3379;SDS011;1703;51.964;7.642;2023-08-07T07:22:46;16.20;;;3.70;;
3379;SDS011;1703;51.964;7.642;2023-08-07T07:25:13;10.90;;;3.40;;
3379;SDS011;1703;51.964;7.642;2023-08-07T07:27:40;10.67;;;3.40;;
3379;SDS011;1703;51.964;7.642;2023-08-07T07:30:07;5.30;;;3.83;;
3379;SDS011;1703;51.964;7.642;2023-08-07T07:32:35;6.70;;;3.57;;
3379;SDS011;1703;51.964;7.642;2023-08-07T07:35:02;5.00;;;3.63;;
3379;SDS011;1703;51.964;7.642;2023-08-07T07:37:29;8.97;;;5.13;;
3379;SDS011;1703;51.964;7.642;2023-08-07T07:39:58;6.47;;;3.97;;
3379;SDS011;1703;51.964;7.642;2023-08-07T07:42:25;13.40;;;4.07;;
3379;SDS011;1703;51.964;7.642;2023-08-07T07:44:52;6.00;;;3.30;;
3379;SDS011;1703;51.964;7.642;2023-08-07T07:47:18;7.00;;;3.10;;
3379;SDS011;1703;51.964;7.642;2023-08-07T07:49:46;9.63;;;4.27;;
3379;SDS011;1703;51.964;7.642;2023-08-07T07:52:13;7.80;;;2.63;;
3379;SDS011;1703;51.964;7.642;2023-08-07T07:54:40;2.57;;;2.37;;
3379;SDS011;1703;51.964;7.642;2023-08-07T07:57:08;6.57;;;2.33;;
3379;SDS011;1703;51.964;7.642;2023-08-07T07:59:35;3.90;;;2.90;;
3379;SDS011;1703;51.964;7.642;2023-08-07T08:02:03;6.27;;;1.80;;
3379;SDS011;1703;51.964;7.642;2023-08-07T08:04:30;3.33;;;2.00;;
3379;SDS011;1703;51.964;7.642;2023-08-07T08:06:57;2.10;;;1.57;;
3379;SDS011;1703;51.964;7.642;2023-08-07T08:09:24;3.87;;;1.67;;
3379;SDS011;1703;51.964;7.642;2023-08-07T08:11:52;4.23;;;2.13;;
3379;SDS011;1703;51.964;7.642;2023-08-07T08:17:20;5.83;;;2.30;;
3379;SDS011;1703;51.964;7.642;2023-08-07T08:21:01;2.30;;;1.60;;
3379;SDS011;1703;51.964;7.642;2023-08-07T08:24:11;4.40;;;2.20;;
3379;SDS011;1703;51.964;7.642;2023-08-07T08:26:56;4.07;;;2.93;;
3379;SDS011;1703;51.964;7.642;2023-08-07T08:29:58;5.13;;;2.57;;
3379;SDS011;1703;51.964;7.642;2023-08-07T08:32:26;8.73;;;2.80;;
3379;SDS011;1703;51.964;7.642;2023-08-07T08:34:53;5.57;;;2.97;;
3379;SDS011;1703;51.964;7.642;2023-08-07T08:37:20;11.67;;;3.80;;
3379;SDS011;1703;51.964;7.642;2023-08-07T08:39:47;7.87;;;3.20;;
3379;SDS011;1703;51.964;7.642;2023-08-07T08:42:14;9.63;;;4.23;;
3379;SDS011;1703;51.964;7.642;2023-08-07T08:44:43;10.60;;;3.67;;
3379;SDS011;1703;51.964;7.642;2023-08-07T08:47:14;14.63;;;3.27;;
3379;SDS011;1703;51.964;7.642;2023-08-07T08:49:46;8.80;;;3.10;;
3379;SDS011;1703;51.964;7.642;2023-08-07T08:52:13;4.20;;;3.80;;
3379;SDS011;1703;51.964;7.642;2023-08-07T08:54:41;22.70;;;3.67;;
3379;SDS011;1703;51.964;7.642;2023-08-07T08:57:09;16.30;;;4.10;;
3379;SDS011;1703;51.964;7.642;2023-08-07T08:59:38;11.47;;;4.10;;
3379;SDS011;1703;51.964;7.642;2023-08-07T09:02:05;12.83;;;4.30;;
3379;SDS011;1703;51.964;7.642;2023-08-07T09:04:33;12.13;;;4.07;;
3379;SDS011;1703;51.964;7.642;2023-08-07T09:07:01;17.87;;;4.30;;
3379;SDS011;1703;51.964;7.642;2023-08-07T09:09:28;6.93;;;3.80;;
3379;SDS011;1703;51.964;7.642;2023-08-07T09:11:55;10.87;;;4.50;;
3379;SDS011;1703;51.964;7.642;2023-08-07T09:14:26;8.27;;;3.37;;
3379;SDS011;1703;51.964;7.642;2023-08-07T09:16:57;12.30;;;4.20;;
3379;SDS011;1703;51.964;7.642;2023-08-07T09:19:26;18.13;;;3.90;;
3379;SDS011;1703;51.964;7.642;2023-08-07T09:21:53;7.10;;;3.10;;
3379;SDS011;1703;51.964;7.642;2023-08-07T09:24:22;11.87;;;3.67;;
3379;SDS011;1703;51.964;7.642;2023-08-07T09:26:50;4.40;;;3.47;;
3379;SDS011;1703;51.964;7.642;2023-08-07T09:29:17;12.60;;;3.67;;
3379;SDS011;1703;51.964;7.642;2023-08-07T09:31:44;14.70;;;3.90;;
3379;SDS011;1703;51.964;7.642;2023-08-07T09:34:11;7.30;;;4.13;;
3379;SDS011;1703;51.964;7.642;2023-08-07T09:36:39;7.27;;;3.13;;
3379;SDS011;1703;51.964;7.642;2023-08-07T09:39:08;9.80;;;3.60;;
3379;SDS011;1703;51.964;7.642;2023-08-07T09:41:37;6.30;;;3.10;;
3379;SDS011;1703;51.964;7.642;2023-08-07T09:44:06;21.13;;;4.10;;
3379;SDS011;1703;51.964;7.642;2023-08-07T09:46:40;4.20;;;2.93;;
3379;SDS011;1703;51.964;7.642;2023-08-07T09:49:07;13.80;;;5.47;;
3379;SDS011;1703;51.964;7.642;2023-08-07T09:51:40;10.33;;;2.53;;
3379;SDS011;1703;51.964;7.642;2023-08-07T09:54:08;13.60;;;3.07;;
3379;SDS011;1703;51.964;7.642;2023-08-07T09:56:35;7.07;;;2.50;;
3379;SDS011;1703;51.964;7.642;2023-08-07T09:59:05;7.70;;;2.83;;
3379;SDS011;1703;51.964;7.642;2023-08-07T10:01:33;9.53;;;2.80;;
3379;SDS011;1703;51.964;7.642;2023-08-07T10:04:03;8.03;;;2.80;;
3379;SDS011;1703;51.964;7.642;2023-08-07T10:06:30;5.10;;;1.97;;
3379;SDS011;1703;51.964;7.642;2023-08-07T10:12:00;8.93;;;2.63;;
3379;SDS011;1703;51.964;7.642;2023-08-07T10:14:27;12.20;;;3.23;;
3379;SDS011;1703;51.964;7.642;2023-08-07T10:16:55;10.90;;;3.20;;
3379;SDS011;1703;51.964;7.642;2023-08-07T10:19:22;15.03;;;3.20;;
3379;SDS011;1703;51.964;7.642;2023-08-07T10:21:49;11.23;;;3.10;;
3379;SDS011;1703;51.964;7.642;2023-08-07T10:24:16;10.70;;;3.63;;
3379;SDS011;1703;51.964;7.642;2023-08-07T10:26:46;6.20;;;2.73;;
3379;SDS011;1703;51.964;7.642;2023-08-07T10:33:04;7.47;;;2.10;;
3379;SDS011;1703;51.964;7.642;2023-08-07T10:43:16;5.83;;;2.80;;
3379;SDS011;1703;51.964;7.642;2023-08-07T10:45:44;6.70;;;2.80;;
3379;SDS011;1703;51.964;7.642;2023-08-07T10:48:13;10.53;;;3.00;;
3379;SDS011;1703;51.964;7.642;2023-08-07T10:50:49;4.17;;;2.27;;
3379;SDS011;1703;51.964;7.642;2023-08-07T10:53:20;6.50;;;2.60;;
3379;SDS011;1703;51.964;7.642;2023-08-07T10:55:54;11.53;;;3.43;;
3379;SDS011;1703;51.964;7.642;2023-08-07T11:05:58;4.80;;;3.07;;
3379;SDS011;1703;51.964;7.642;2023-08-07T11:08:25;12.30;;;4.00;;
3379;SDS011;1703;51.964;7.642;2023-08-07T11:10:53;8.90;;;2.90;;
3379;SDS011;1703;51.964;7.642;2023-08-07T11:13:21;5.43;;;2.70;;
3379;SDS011;1703;51.964;7.642;2023-08-07T11:15:47;8.40;;;3.27;;
3379;SDS011;1703;51.964;7.642;2023-08-07T11:18:16;14.93;;;5.40;;
3379;SDS011;1703;51.964;7.642;2023-08-07T11:20:44;9.57;;;2.80;;
3379;SDS011;1703;51.964;7.642;2023-08-07T11:23:12;12.30;;;2.83;;
3379;SDS011;1703;51.964;7.642;2023-08-07T11:25:39;9.07;;;2.57;;
3379;SDS011;1703;51.964;7.642;2023-08-07T11:28:07;4.30;;;2.83;;
3379;SDS011;1703;51.964;7.642;2023-08-07T11:30:34;6.10;;;2.43;;
3379;SDS011;1703;51.964;7.642;2023-08-07T11:33:01;5.93;;;2.13;;
3379;SDS011;1703;51.964;7.642;2023-08-07T11:39:17;14.13;;;2.60;;
3379;SDS011;1703;51.964;7.642;2023-08-07T11:41:44;7.90;;;2.40;;
3379;SDS011;1703;51.964;7.642;2023-08-07T11:44:12;5.20;;;2.30;;
3379;SDS011;1703;51.964;7.642;2023-08-07T11:54:14;6.77;;;1.80;;
3379;SDS011;1703;51.964;7.642;2023-08-07T11:56:43;6.50;;;2.40;;
3379;SDS011;1703;51.964;7.642;2023-08-07T11:59:11;4.60;;;1.67;;
3379;SDS011;1703;51.964;7.642;2023-08-07T12:01:42;4.00;;;1.43;;
3379;SDS011;1703;51.964;7.642;2023-08-07T12:04:09;6.30;;;1.87;;
3379;SDS011;1703;51.964;7.642;2023-08-07T12:06:36;8.90;;;1.90;;
3379;SDS011;1703;51.964;7.642;2023-08-07T12:09:05;2.40;;;1.73;;
3379;SDS011;1703;51.964;7.642;2023-08-07T12:11:37;5.07;;;2.00;;
3379;SDS011;1703;51.964;7.642;2023-08-07T12:14:05;5.57;;;2.57;;
3379;SDS011;1703;51.964;7.642;2023-08-07T12:16:34;2.70;;;1.80;;
3379;SDS011;1703;51.964;7.642;2023-08-07T12:31:02;5.07;;;3.17;;
3379;SDS011;1703;51.964;7.642;2023-08-07T12:33:29;6.10;;;2.30;;
3379;SDS011;1703;51.964;7.642;2023-08-07T12:35:56;6.90;;;1.70;;
3379;SDS011;1703;51.964;7.642;2023-08-07T12:46:05;4.83;;;2.07;;
3379;SDS011;1703;51.964;7.642;2023-08-07T12:52:20;4.67;;;2.00;;
3379;SDS011;1703;51.964;7.642;2023-08-07T12:54:46;2.90;;;1.83;;
3379;SDS011;1703;51.964;7.642;2023-08-07T12:57:13;7.00;;;2.13;;
3379;SDS011;1703;51.964;7.642;2023-08-07T12:59:40;6.30;;;1.57;;
3379;SDS011;1703;51.964;7.642;2023-08-07T13:02:08;3.83;;;1.90;;
3379;SDS011;1703;51.964;7.642;2023-08-07T13:04:35;2.13;;;1.17;;
3379;SDS011;1703;51.964;7.642;2023-08-07T13:14:38;3.43;;;1.63;;
3379;SDS011;1703;51.964;7.642;2023-08-07T13:20:53;5.20;;;2.23;;
3379;SDS011;1703;51.964;7.642;2023-08-07T13:34:45;2.70;;;2.20;;
3379;SDS011;1703;51.964;7.642;2023-08-07T13:37:13;9.00;;;3.43;;
3379;SDS011;1703;51.964;7.642;2023-08-07T13:39:40;2.57;;;1.43;;
3379;SDS011;1703;51.964;7.642;2023-08-07T13:42:07;5.63;;;1.50;;
3379;SDS011;1703;51.964;7.642;2023-08-07T13:44:35;7.53;;;1.80;;
3379;SDS011;1703;51.964;7.642;2023-08-07T13:47:02;3.20;;;1.87;;
3379;SDS011;1703;51.964;7.642;2023-08-07T13:49:29;5.13;;;1.90;;
3379;SDS011;1703;51.964;7.642;2023-08-07T13:51:56;4.50;;;2.20;;
3379;SDS011;1703;51.964;7.642;2023-08-07T13:54:24;6.07;;;2.60;;
3379;SDS011;1703;51.964;7.642;2023-08-07T13:56:51;5.00;;;2.77;;
3379;SDS011;1703;51.964;7.642;2023-08-07T13:59:18;4.30;;;1.80;;
3379;SDS011;1703;51.964;7.642;2023-08-07T14:01:45;6.13;;;2.43;;
3379;SDS011;1703;51.964;7.642;2023-08-07T14:04:12;5.17;;;1.90;;
3379;SDS011;1703;51.964;7.642;2023-08-07T14:06:39;3.43;;;1.77;;
3379;SDS011;1703;51.964;7.642;2023-08-07T14:09:08;5.57;;;2.27;;
3379;SDS011;1703;51.964;7.642;2023-08-07T14:11:36;7.07;;;2.13;;
3379;SDS011;1703;51.964;7.642;2023-08-07T14:14:03;6.60;;;1.93;;
3379;SDS011;1703;51.964;7.642;2023-08-07T14:16:30;5.63;;;2.40;;
3379;SDS011;1703;51.964;7.642;2023-08-07T14:18:57;3.60;;;1.87;;
3379;SDS011;1703;51.964;7.642;2023-08-07T14:21:24;7.00;;;1.60;;
3379;SDS011;1703;51.964;7.642;2023-08-07T14:23:51;11.03;;;1.93;;
3379;SDS011;1703;51.964;7.642;2023-08-07T14:26:18;3.97;;;2.07;;
3379;SDS011;1703;51.964;7.642;2023-08-07T14:28:47;3.53;;;2.07;;
3379;SDS011;1703;51.964;7.642;2023-08-07T14:31:14;3.73;;;2.20;;
3379;SDS011;1703;51.964;7.642;2023-08-07T14:33:40;3.47;;;1.97;;
3379;SDS011;1703;51.964;7.642;2023-08-07T14:36:07;4.60;;;2.43;;
3379;SDS011;1703;51.964;7.642;2023-08-07T14:38:34;4.60;;;2.00;;
3379;SDS011;1703;51.964;7.642;2023-08-07T14:41:01;3.33;;;1.63;;
3379;SDS011;1703;51.964;7.642;2023-08-07T14:43:29;3.50;;;1.80;;
3379;SDS011;1703;51.964;7.642;2023-08-07T14:45:58;8.73;;;1.60;;
3379;SDS011;1703;51.964;7.642;2023-08-07T14:48:25;5.57;;;2.00;;
3379;SDS011;1703;51.964;7.642;2023-08-07T14:50:52;2.00;;;1.73;;
3379;SDS011;1703;51.964;7.642;2023-08-07T14:53:20;5.67;;;2.00;;
3379;SDS011;1703;51.964;7.642;2023-08-07T14:59:34;2.30;;;1.30;;
3379;SDS011;1703;51.964;7.642;2023-08-07T15:02:03;2.50;;;1.53;;
3379;SDS011;1703;51.964;7.642;2023-08-07T15:07:51;2.03;;;1.70;;
3379;SDS011;1703;51.964;7.642;2023-08-07T15:10:18;2.20;;;1.57;;
3379;SDS011;1703;51.964;7.642;2023-08-07T15:16:34;5.40;;;2.53;;
3379;SDS011;1703;51.964;7.642;2023-08-07T15:22:51;5.60;;;2.13;;
3379;SDS011;1703;51.964;7.642;2023-08-07T15:25:18;6.60;;;2.20;;
3379;SDS011;1703;51.964;7.642;2023-08-07T15:31:31;5.00;;;2.80;;
3379;SDS011;1703;51.964;7.642;2023-08-07T15:33:58;3.70;;;1.67;;
3379;SDS011;1703;51.964;7.642;2023-08-07T15:36:25;14.60;;;1.60;;
3379;SDS011;1703;51.964;7.642;2023-08-07T15:38:53;4.87;;;2.23;;
3379;SDS011;1703;51.964;7.642;2023-08-07T15:45:09;2.77;;;1.50;;
3379;SDS011;1703;51.964;7.642;2023-08-07T15:47:36;2.37;;;1.90;;
3379;SDS011;1703;51.964;7.642;2023-08-07T15:50:03;3.90;;;1.40;;
3379;SDS011;1703;51.964;7.642;2023-08-07T15:52:31;6.30;;;1.83;;
3379;SDS011;1703;51.964;7.642;2023-08-07T15:54:59;2.30;;;2.10;;
3379;SDS011;1703;51.964;7.642;2023-08-07T15:57:26;4.67;;;1.50;;
3379;SDS011;1703;51.964;7.642;2023-08-07T15:59:52;4.30;;;1.70;;
3379;SDS011;1703;51.964;7.642;2023-08-07T16:02:19;2.80;;;1.40;;
3379;SDS011;1703;51.964;7.642;2023-08-07T16:04:46;3.07;;;1.30;;
3379;SDS011;1703;51.964;7.642;2023-08-07T16:07:13;4.67;;;1.43;;
3379;SDS011;1703;51.964;7.642;2023-08-07T16:09:39;2.57;;;1.57;;
3379;SDS011;1703;51.964;7.642;2023-08-07T16:12:07;3.43;;;1.87;;
3379;SDS011;1703;51.964;7.642;2023-08-07T16:14:35;1.83;;;1.53;;
3379;SDS011;1703;51.964;7.642;2023-08-07T16:17:02;2.07;;;1.60;;
3379;SDS011;1703;51.964;7.642;2023-08-07T16:19:29;12.93;;;1.80;;
3379;SDS011;1703;51.964;7.642;2023-08-07T16:21:56;3.03;;;1.60;;
3379;SDS011;1703;51.964;7.642;2023-08-07T16:24:23;5.53;;;1.50;;
3379;SDS011;1703;51.964;7.642;2023-08-07T16:26:50;3.50;;;1.40;;
3379;SDS011;1703;51.964;7.642;2023-08-07T16:29:18;3.53;;;1.63;;
3379;SDS011;1703;51.964;7.642;2023-08-07T16:31:45;4.40;;;1.40;;
3379;SDS011;1703;51.964;7.642;2023-08-07T16:34:11;3.63;;;1.47;;
3379;SDS011;1703;51.964;7.642;2023-08-07T16:36:38;3.57;;;1.70;;
3379;SDS011;1703;51.964;7.642;2023-08-07T16:39:05;2.90;;;1.30;;
3379;SDS011;1703;51.964;7.642;2023-08-07T16:41:32;2.13;;;1.37;;
3379;SDS011;1703;51.964;7.642;2023-08-07T16:43:58;6.73;;;1.80;;
3379;SDS011;1703;51.964;7.642;2023-08-07T16:46:26;2.23;;;1.43;;
3379;SDS011;1703;51.964;7.642;2023-08-07T16:48:52;2.40;;;1.50;;
3379;SDS011;1703;51.964;7.642;2023-08-07T16:51:19;6.10;;;1.57;;
3379;SDS011;1703;51.964;7.642;2023-08-07T16:53:46;3.70;;;1.67;;
3379;SDS011;1703;51.964;7.642;2023-08-07T16:56:13;3.40;;;1.77;;
3379;SDS011;1703;51.964;7.642;2023-08-07T16:58:39;6.10;;;2.47;;
3379;SDS011;1703;51.964;7.642;2023-08-07T17:01:08;2.90;;;1.37;;
3379;SDS011;1703;51.964;7.642;2023-08-07T17:03:37;4.60;;;1.47;;
3379;SDS011;1703;51.964;7.642;2023-08-07T17:06:03;2.90;;;1.30;;
3379;SDS011;1703;51.964;7.642;2023-08-07T17:08:30;2.40;;;1.50;;
3379;SDS011;1703;51.964;7.642;2023-08-07T17:10:57;2.43;;;2.23;;
3379;SDS011;1703;51.964;7.642;2023-08-07T17:13:24;4.13;;;1.83;;
3379;SDS011;1703;51.964;7.642;2023-08-07T17:15:50;6.83;;;1.90;;